Upper Fairmount, Maryland
Current Conditions -  °F | °C
As of 1:54 AM on Tuesday 21 Oct 2014 (Local Time) from KWAL Reporting Station
Clear Clear  
Wind Chill: 61°   Ceiling: Unl
Heat Index: 61°   Visibility: 10mi
Dew Point: 54°   Wind: 8mph
Humidity: 78%   Direction: 230°SW
Pressure: 29.95"   Gusts: NA
Location:  38.1°N, 75.79°W
Report Text: KWAL 210554Z AUTO 23007KT 10SM CLR 16/12 A2995 RMK AO2 SLP138 T01610122 10167 20133 58015
Loading
Personal Weather Stations






























Interactive Weather Map
Tropical Storm Tracking
New forecast layout! Learn more

10-Day Weather Forecast

Advertisements
Track Severe Weather on mobile